KMYZ

Marysville Municipal Airport

Marysville, Kansas, USA
METAR KMYZ 191235Z AUTO 17005KT 10SM CLR 22/20 A2988 RMK AO2
Observed Flight Rules
Sep-19 @ 12:35 UTC (20 minutes ago) Visual Flight Rules
Wind Visibility Clouds
170° at 5 knots 10 miles
  • Clear skies
Temperatures Readings
Current 22°C / 72°F
Dewpoint 20°C / 68°F
Humidity 88%
Altimeter 29.88" Hg
Pressure 1012 hPa
Elevation 319
METAR KMYZ 191235Z AUTO 17005KT 10SM CLR 22/20 A2988 RMK AO2
Observed Flight Rules
Sep-19 @ 12:35 UTC
(20 minutes ago)
VFR
Wind Visibility
170° at 5 knots 10 miles
Clouds
  • Clear skies
Temperature Dewpoint
22°C / 72°F 20°C / 68°F
Humidity Altimeter Pressure
88% 29.88" Hg 1012 hPa